메인 페이지
METAR-TAF:

METAR-TAF

공항 :

민스크 국제공항

민스크, 벨라루스

위도: 53-56N, 경도: 027-38E, 고도: 234m

현재 날씨관측

예보는 32분 전, 12:30시(UTC)에 발표되었습니다.
6kt, 순간 최대 풍속 12kt북북동풍과 남남동풍을 오가는
온도 27°C
습도 37%
기압 1011 hPa
시정 10km 이상
1500m 미만 상공 구름 및 적란운 없음

METAR: UMMS 241230Z 09003G06MPS 020V160 CAVOK 27/11 Q1011 NOSIG

시각: 16:02 (13:02 UTC)

예보

예보는 1 시간 51분 전, 11:11시(UTC)에 발표되었습니다.
예보 대상 시간: 24일 12시부터 25일 12시까지 (UTC)
10kt, 순간 최대 풍속 19kt
시정 10km 이상
고도 2500ft 상공 구름 많음
일시적
24일 12시부터 24일 19시까지 (UTC)
시정: 3000m
고도 700ft 상공 구름 조금
고도 2000ft 상공 구름 많음, 적란운.
뇌우, 약한비
전환 중
24일 19시부터 24일 20시까지 (UTC)
여러 방향의 바람 4kt
일시적
24일 20시부터 25일 06시까지 (UTC)
시정: 3000m
고도 300ft 상공 구름 조금
곳곳에 안개, 박무
전환 중
25일 06시부터 25일 07시까지 (UTC)
동남동10kt, 순간 최대 풍속 19kt
일시적
25일 07시부터 25일 12시까지 (UTC)
시정: 3000m
고도 500ft 상공 구름 조금
고도 2500ft 상공 구름 많음, 적란운.
뇌우, 약한비,

TAF: UMMS 241111Z 2412/2512 10005G10MPS 9999 BKN025 TEMPO 2412/2419 3000 -TSRA FEW007 BKN020CB BECMG 2419/2420 VRB02MPS TEMPO 2420/2506 3000 BCFG BR FEW003 BECMG 2506/2507 12005G10MPS TEMPO 2507/2512 3000 -TSRA FEW005 BKN025CB

4,000개 이상의 공항 관측 자료 및 예보 (METAR 및 TAF 보고).

지도상에서 검색 가능한 기상관측소가 노란 점과 빨간 점으로 표시되어 있습니다.

기상관측소 명을 보려면 표시 위로 마우스를 이동하세요.

날씨 관측과 예보를 보려면 클릭하세요.

지도 변경 : 확대하려면 엑스 표시가 있는 녹색 버튼, 축소하려면 빼기 표시가 있는 녹색 버튼, 다음 페이지의 지도를 보려면 녹색 화살표를 클릭하세요.


METAR-TAF: